createdAt,value
2018-07-16T00:00:12.115Z,19.73
2018-07-16T00:05:16.853Z,17.40
2018-07-16T00:15:39.945Z,16.00
2018-07-16T00:20:44.644Z,17.00
2018-07-16T00:25:49.381Z,15.77
2018-07-16T00:30:54.089Z,10.73
2018-07-16T00:35:58.717Z,14.23
2018-07-16T00:41:03.446Z,17.27
2018-07-16T00:46:08.109Z,14.93
2018-07-16T00:51:12.797Z,17.80
2018-07-16T00:56:17.462Z,19.90
2018-07-16T01:01:22.092Z,15.53
2018-07-16T01:06:27.376Z,13.90
2018-07-16T01:11:32.124Z,19.27
2018-07-16T01:16:36.749Z,16.00
2018-07-16T01:21:41.451Z,16.73
2018-07-16T01:26:46.226Z,10.93
2018-07-16T01:31:51.022Z,12.80
2018-07-16T01:36:55.424Z,14.93
2018-07-16T01:42:00.128Z,14.23
2018-07-16T01:47:04.780Z,10.63
2018-07-16T01:52:09.381Z,9.80
2018-07-16T01:57:14.063Z,9.20
2018-07-16T02:02:18.749Z,8.33
2018-07-16T02:07:23.488Z,16.10
2018-07-16T02:12:28.419Z,22.53
2018-07-16T02:17:33.162Z,21.80
2018-07-16T02:22:38.069Z,17.97
2018-07-16T02:27:42.724Z,17.80
2018-07-16T02:32:47.404Z,11.00
2018-07-16T02:37:52.177Z,13.60
2018-07-16T02:42:56.992Z,11.10
2018-07-16T02:48:01.667Z,16.07
2018-07-16T02:53:06.393Z,17.63
2018-07-16T02:58:11.105Z,16.53
2018-07-16T03:03:15.777Z,14.60
2018-07-16T03:08:20.491Z,11.27
2018-07-16T03:13:25.132Z,12.10
2018-07-16T03:18:29.847Z,12.43
2018-07-16T03:23:34.466Z,10.37
2018-07-16T03:28:39.333Z,11.90
2018-07-16T03:33:43.661Z,13.33
2018-07-16T03:38:48.308Z,13.57
2018-07-16T03:43:53.004Z,12.80
2018-07-16T03:48:57.944Z,12.67
2018-07-16T03:54:02.580Z,11.93
2018-07-16T03:59:07.275Z,11.83
2018-07-16T04:04:11.997Z,11.07
2018-07-16T04:09:16.748Z,10.93
2018-07-16T04:14:21.832Z,13.17
2018-07-16T04:19:26.611Z,11.40
2018-07-16T04:24:31.306Z,11.40
2018-07-16T04:29:36.061Z,10.10
2018-07-16T04:34:40.706Z,9.50
2018-07-16T04:39:45.416Z,10.50
2018-07-16T04:44:50.149Z,9.90
2018-07-16T04:49:54.877Z,10.17
2018-07-16T04:54:59.529Z,10.23
2018-07-16T05:00:04.261Z,9.27
2018-07-16T05:05:08.989Z,9.90
2018-07-16T05:10:13.814Z,9.47
2018-07-16T05:15:18.531Z,9.23
2018-07-16T05:20:23.407Z,9.87
2018-07-16T05:25:28.043Z,9.80
2018-07-16T05:30:32.725Z,9.40
2018-07-16T05:35:37.395Z,9.67
2018-07-16T05:40:43.138Z,10.10
2018-07-16T05:45:47.932Z,10.10
2018-07-16T05:50:52.632Z,9.93
2018-07-16T05:55:57.397Z,9.13
2018-07-16T06:01:02.028Z,8.60
2018-07-16T06:06:06.835Z,7.67
2018-07-16T06:11:11.573Z,7.57
2018-07-16T06:16:16.230Z,7.80
2018-07-16T06:21:20.897Z,8.57
2018-07-16T06:26:25.588Z,9.57
2018-07-16T06:31:30.282Z,9.03
2018-07-16T06:36:34.969Z,8.60
2018-07-16T06:41:39.577Z,8.10
2018-07-16T06:46:44.172Z,7.63
2018-07-16T06:51:48.521Z,7.97
2018-07-16T06:56:52.854Z,7.60
2018-07-16T07:01:57.805Z,7.50
2018-07-16T07:07:02.538Z,7.43
2018-07-16T07:12:06.936Z,7.23
2018-07-16T07:17:11.579Z,7.00
2018-07-16T07:22:16.214Z,7.70
2018-07-16T07:27:20.944Z,7.23
2018-07-16T07:32:25.650Z,8.10
2018-07-16T07:37:30.513Z,7.60
2018-07-16T07:42:35.226Z,8.20
2018-07-16T07:47:39.991Z,9.67
2018-07-16T07:52:44.376Z,9.37
2018-07-16T07:57:49.079Z,9.37
2018-07-16T08:02:53.855Z,9.53
2018-07-16T08:07:58.580Z,9.00
2018-07-16T08:13:03.421Z,9.20
2018-07-16T08:18:08.069Z,9.30
2018-07-16T08:23:12.758Z,9.10
2018-07-16T08:28:17.673Z,9.33
2018-07-16T08:33:22.327Z,9.23
2018-07-16T08:38:27.049Z,8.87
2018-07-16T08:43:31.708Z,8.53
2018-07-16T08:48:36.364Z,8.10
2018-07-16T08:53:41.027Z,9.73
2018-07-16T08:58:45.685Z,11.47
2018-07-16T09:03:50.371Z,8.50
2018-07-16T09:08:55.191Z,7.90
2018-07-16T09:13:59.901Z,7.50
2018-07-16T09:19:04.644Z,6.80
2018-07-16T09:24:09.329Z,6.87
2018-07-16T09:29:14.073Z,6.10
2018-07-16T09:34:18.657Z,6.43
2018-07-16T09:39:23.289Z,6.27
2018-07-16T09:44:27.981Z,6.73
2018-07-16T09:49:32.723Z,6.23
2018-07-16T09:54:37.830Z,5.97
2018-07-16T09:59:42.496Z,5.60
2018-07-16T10:04:47.680Z,4.77
2018-07-16T10:09:52.335Z,4.20
2018-07-16T10:14:56.965Z,4.60
2018-07-16T10:20:01.540Z,4.30
2018-07-16T10:25:06.266Z,3.57
2018-07-16T10:30:11.028Z,3.00
2018-07-16T10:35:15.870Z,3.70
2018-07-16T10:40:20.500Z,3.70
2018-07-16T10:45:25.285Z,3.23
2018-07-16T10:50:29.877Z,3.50
2018-07-16T10:55:34.605Z,3.77
2018-07-16T11:00:39.279Z,4.70
2018-07-16T11:05:43.931Z,5.50
2018-07-16T11:10:48.806Z,4.67
2018-07-16T11:15:53.535Z,4.90
2018-07-16T11:20:58.366Z,5.50
2018-07-16T11:26:02.913Z,5.00
2018-07-16T11:31:07.795Z,5.50
2018-07-16T11:36:12.605Z,5.80
2018-07-16T11:41:17.267Z,5.60
2018-07-16T11:46:22.004Z,5.43
2018-07-16T11:51:26.881Z,5.90
2018-07-16T11:56:31.550Z,5.77
2018-07-16T12:01:36.347Z,5.50
2018-07-16T12:06:41.071Z,5.73
2018-07-16T12:11:45.688Z,5.93
2018-07-16T12:16:50.559Z,5.23
2018-07-16T12:21:55.631Z,5.57
2018-07-16T12:32:06.220Z,4.17
2018-07-16T12:37:10.874Z,4.43
2018-07-16T12:42:15.500Z,3.97
2018-07-16T12:47:20.227Z,4.20
2018-07-16T12:52:24.830Z,3.30
2018-07-16T12:57:29.525Z,3.27
2018-07-16T13:02:34.243Z,3.63
2018-07-16T13:07:39.030Z,2.70
2018-07-16T13:12:43.686Z,3.60
2018-07-16T13:17:50.025Z,3.10
2018-07-16T13:22:54.789Z,3.20
2018-07-16T13:27:59.110Z,3.50
2018-07-16T13:33:03.732Z,3.23
2018-07-16T13:38:08.510Z,2.97
2018-07-16T13:43:13.199Z,3.17
2018-07-16T13:48:18.028Z,3.03
2018-07-16T13:53:22.994Z,2.90
2018-07-16T13:58:27.839Z,2.60
2018-07-16T14:03:32.574Z,2.53
2018-07-16T14:08:37.268Z,2.53
2018-07-16T14:13:41.936Z,2.80
2018-07-16T14:18:46.664Z,2.40
2018-07-16T14:23:51.320Z,2.70
2018-07-16T14:28:56.081Z,2.20
2018-07-16T14:34:01.128Z,2.80
2018-07-16T14:39:07.075Z,2.27
2018-07-16T14:44:11.936Z,2.20
2018-07-16T14:49:16.704Z,2.40
2018-07-16T14:54:21.369Z,2.37
2018-07-16T14:59:26.090Z,2.43
2018-07-16T15:04:30.763Z,2.33
2018-07-16T15:09:35.429Z,2.33
2018-07-16T15:14:40.216Z,2.47
2018-07-16T15:19:44.901Z,2.80
2018-07-16T15:24:49.594Z,2.60
2018-07-16T15:29:54.280Z,3.30
2018-07-16T15:34:58.939Z,3.07
2018-07-16T15:40:03.644Z,3.40
2018-07-16T15:45:08.442Z,2.87
2018-07-16T15:50:13.308Z,3.10
2018-07-16T15:55:18.017Z,3.00
2018-07-16T16:00:22.745Z,2.53
2018-07-16T16:05:27.392Z,2.83
2018-07-16T16:10:31.992Z,2.67
2018-07-16T16:15:36.680Z,2.77
2018-07-16T16:20:41.412Z,2.63
2018-07-16T16:25:46.205Z,3.00
2018-07-16T16:30:51.024Z,2.93
2018-07-16T16:35:55.734Z,2.73
2018-07-16T16:41:00.771Z,2.97
2018-07-16T16:46:08.956Z,2.77
2018-07-16T16:51:14.338Z,2.47
2018-07-16T16:56:18.688Z,2.57
2018-07-16T17:01:23.599Z,2.97
2018-07-16T17:06:28.479Z,3.57
2018-07-16T17:11:33.103Z,3.10
2018-07-16T17:16:37.844Z,2.57
2018-07-16T17:21:42.905Z,2.80
2018-07-16T17:26:47.608Z,2.27
2018-07-16T17:31:52.316Z,1.80
2018-07-16T17:36:57.027Z,2.20
2018-07-16T17:42:01.892Z,2.17
2018-07-16T17:47:06.696Z,1.87
2018-07-16T17:52:11.405Z,2.17
2018-07-16T17:57:16.157Z,2.33
2018-07-16T18:02:20.932Z,2.10
2018-07-16T18:07:25.687Z,1.97
2018-07-16T18:12:30.380Z,2.33
2018-07-16T18:17:35.482Z,2.30
2018-07-16T18:22:40.221Z,2.20
2018-07-16T18:27:44.953Z,1.83
2018-07-16T18:32:49.870Z,2.20
2018-07-16T18:37:54.646Z,2.33
2018-07-16T18:42:59.567Z,2.50
2018-07-16T18:48:04.338Z,2.13
2018-07-16T18:53:09.289Z,2.13
2018-07-16T18:58:14.009Z,2.90
2018-07-16T19:03:18.700Z,2.70
2018-07-16T19:08:23.452Z,2.60
2018-07-16T19:13:28.188Z,2.90
2018-07-16T19:18:32.829Z,2.70
2018-07-16T19:23:37.661Z,3.10
2018-07-16T19:28:43.300Z,2.87
2018-07-16T19:33:48.086Z,2.97
2018-07-16T19:38:52.972Z,3.30
2018-07-16T19:43:57.818Z,3.63
2018-07-16T19:49:02.568Z,3.20
2018-07-16T19:54:08.298Z,3.33
2018-07-16T19:59:13.070Z,3.90
2018-07-16T20:04:17.952Z,3.50
2018-07-16T20:09:22.630Z,3.60
2018-07-16T20:14:30.980Z,3.00
2018-07-16T20:19:36.832Z,3.33
2018-07-16T20:24:41.531Z,3.60
2018-07-16T20:29:46.227Z,3.40
2018-07-16T20:34:50.951Z,3.50
2018-07-16T20:39:55.834Z,2.93
2018-07-16T20:45:00.576Z,3.70
2018-07-16T20:50:05.795Z,3.70
2018-07-16T20:55:10.644Z,3.53
2018-07-16T21:00:15.285Z,3.30
2018-07-16T21:05:19.969Z,4.07
2018-07-16T21:10:24.668Z,3.10
2018-07-16T21:15:29.380Z,3.07
2018-07-16T21:20:34.109Z,3.47
2018-07-16T21:25:38.871Z,4.33
2018-07-16T21:30:43.604Z,3.60
2018-07-16T21:35:49.363Z,3.37
2018-07-16T21:40:54.120Z,3.93
2018-07-16T21:45:58.801Z,3.67
2018-07-16T21:51:03.469Z,3.70
2018-07-16T21:56:08.236Z,3.40
2018-07-16T22:01:12.954Z,3.57
2018-07-16T22:06:17.684Z,2.90
2018-07-16T22:11:22.500Z,3.70
2018-07-16T22:16:27.281Z,3.90
2018-07-16T22:21:32.066Z,3.90
2018-07-16T22:26:36.683Z,3.90
2018-07-16T22:31:41.405Z,3.23
2018-07-16T22:36:46.121Z,3.73
2018-07-16T22:41:50.797Z,3.97
2018-07-16T22:46:55.467Z,3.83
2018-07-16T22:52:00.137Z,3.53
2018-07-16T22:57:04.826Z,4.20
2018-07-16T23:02:09.945Z,3.77
2018-07-16T23:07:14.702Z,3.63
2018-07-16T23:12:19.435Z,3.77
2018-07-16T23:17:24.078Z,4.00
2018-07-16T23:22:28.844Z,3.83
2018-07-16T23:27:33.516Z,3.87
2018-07-16T23:32:38.151Z,4.20
2018-07-16T23:37:42.834Z,3.73
2018-07-16T23:42:47.494Z,4.03
2018-07-16T23:47:52.129Z,3.90
2018-07-16T23:52:56.804Z,3.70
2018-07-16T23:58:01.418Z,4.20
